Terminal Aerodrome Forecast
Issued by NWS Sioux Falls, SD

Home | Current Version | Previous Version | Text Only | Print | Product List | Glossary On
Versions: 1 2 3 4 5 6 7 8 9 10 11 12 13 14 15 16
000
FTUS43 KFSD 241140
TAFSUX
TAF
KSUX 241140Z 2412/2512 VRB03KT P6SM MIFG FEW250
     FM241330 12006KT P6SM FEW250
     FM241900 15010KT P6SM FEW250
     FM251000 15010KT P6SM FEW250 WS020/19040KT=

USA.gov is the U.S. government's official web portal to all federal, state and local government web resources and services.